sensor_id;sensor_type;location;lat;lon;timestamp;P1;durP1;ratioP1;P2;durP2;ratioP2
65853;SDS011;52627;48.838;2.402;2023-04-15T00:00:57;10.20;;;7.10;;
65853;SDS011;52627;48.838;2.402;2023-04-15T00:03:24;10.80;;;7.00;;
65853;SDS011;52627;48.838;2.402;2023-04-15T00:05:52;11.50;;;6.60;;
65853;SDS011;52627;48.838;2.402;2023-04-15T00:08:18;11.20;;;7.40;;
65853;SDS011;52627;48.838;2.402;2023-04-15T00:10:45;11.80;;;6.70;;
65853;SDS011;52627;48.838;2.402;2023-04-15T00:13:12;9.70;;;7.30;;
65853;SDS011;52627;48.838;2.402;2023-04-15T00:15:40;10.70;;;7.10;;
65853;SDS011;52627;48.838;2.402;2023-04-15T00:18:08;9.70;;;7.10;;
65853;SDS011;52627;48.838;2.402;2023-04-15T00:20:35;12.30;;;7.30;;
65853;SDS011;52627;48.838;2.402;2023-04-15T00:23:02;11.10;;;7.30;;
65853;SDS011;52627;48.838;2.402;2023-04-15T00:25:29;12.50;;;7.50;;
65853;SDS011;52627;48.838;2.402;2023-04-15T00:27:56;15.50;;;9.40;;
65853;SDS011;52627;48.838;2.402;2023-04-15T00:30:23;10.80;;;8.00;;
65853;SDS011;52627;48.838;2.402;2023-04-15T00:32:51;10.60;;;8.00;;
65853;SDS011;52627;48.838;2.402;2023-04-15T00:35:18;10.30;;;6.80;;
65853;SDS011;52627;48.838;2.402;2023-04-15T00:37:44;8.80;;;6.60;;
65853;SDS011;52627;48.838;2.402;2023-04-15T00:40:12;11.50;;;6.70;;
65853;SDS011;52627;48.838;2.402;2023-04-15T00:42:40;9.50;;;6.50;;
65853;SDS011;52627;48.838;2.402;2023-04-15T00:45:07;10.80;;;6.50;;
65853;SDS011;52627;48.838;2.402;2023-04-15T00:47:35;12.00;;;7.30;;
65853;SDS011;52627;48.838;2.402;2023-04-15T00:50:03;11.60;;;7.30;;
65853;SDS011;52627;48.838;2.402;2023-04-15T00:52:31;11.80;;;7.00;;
65853;SDS011;52627;48.838;2.402;2023-04-15T00:54:58;11.80;;;7.60;;
65853;SDS011;52627;48.838;2.402;2023-04-15T00:57:27;9.40;;;7.40;;
65853;SDS011;52627;48.838;2.402;2023-04-15T00:59:55;10.60;;;7.50;;
65853;SDS011;52627;48.838;2.402;2023-04-15T01:02:22;9.70;;;6.70;;
65853;SDS011;52627;48.838;2.402;2023-04-15T01:04:50;9.90;;;6.40;;
65853;SDS011;52627;48.838;2.402;2023-04-15T01:07:17;9.20;;;6.90;;
65853;SDS011;52627;48.838;2.402;2023-04-15T01:09:44;10.30;;;7.10;;
65853;SDS011;52627;48.838;2.402;2023-04-15T01:12:12;12.00;;;7.10;;
65853;SDS011;52627;48.838;2.402;2023-04-15T01:14:41;9.30;;;6.30;;
65853;SDS011;52627;48.838;2.402;2023-04-15T01:17:08;8.70;;;6.40;;
65853;SDS011;52627;48.838;2.402;2023-04-15T01:19:35;12.80;;;7.70;;
65853;SDS011;52627;48.838;2.402;2023-04-15T01:22:03;9.30;;;6.70;;
65853;SDS011;52627;48.838;2.402;2023-04-15T01:24:31;10.80;;;7.40;;
65853;SDS011;52627;48.838;2.402;2023-04-15T01:26:59;14.60;;;8.10;;
65853;SDS011;52627;48.838;2.402;2023-04-15T01:29:26;11.50;;;7.80;;
65853;SDS011;52627;48.838;2.402;2023-04-15T01:31:54;13.70;;;8.40;;
65853;SDS011;52627;48.838;2.402;2023-04-15T01:34:22;11.70;;;7.70;;
65853;SDS011;52627;48.838;2.402;2023-04-15T01:36:49;11.90;;;8.50;;
65853;SDS011;52627;48.838;2.402;2023-04-15T01:39:16;11.00;;;8.10;;
65853;SDS011;52627;48.838;2.402;2023-04-15T01:41:43;13.00;;;8.60;;
65853;SDS011;52627;48.838;2.402;2023-04-15T01:44:10;11.80;;;7.90;;
65853;SDS011;52627;48.838;2.402;2023-04-15T01:46:37;11.60;;;8.60;;
65853;SDS011;52627;48.838;2.402;2023-04-15T01:49:04;20.50;;;12.60;;
65853;SDS011;52627;48.838;2.402;2023-04-15T01:51:30;17.00;;;10.10;;
65853;SDS011;52627;48.838;2.402;2023-04-15T01:53:57;13.40;;;8.60;;
65853;SDS011;52627;48.838;2.402;2023-04-15T01:56:24;15.10;;;9.30;;
65853;SDS011;52627;48.838;2.402;2023-04-15T01:58:51;17.20;;;9.60;;
65853;SDS011;52627;48.838;2.402;2023-04-15T02:01:18;15.40;;;9.70;;
65853;SDS011;52627;48.838;2.402;2023-04-15T02:03:45;12.70;;;8.80;;
65853;SDS011;52627;48.838;2.402;2023-04-15T02:06:13;11.30;;;8.40;;
65853;SDS011;52627;48.838;2.402;2023-04-15T02:08:40;14.20;;;9.30;;
65853;SDS011;52627;48.838;2.402;2023-04-15T02:11:07;14.00;;;9.00;;
65853;SDS011;52627;48.838;2.402;2023-04-15T02:13:33;14.60;;;8.00;;
65853;SDS011;52627;48.838;2.402;2023-04-15T02:16:01;11.90;;;9.00;;
65853;SDS011;52627;48.838;2.402;2023-04-15T02:18:29;15.60;;;8.50;;
65853;SDS011;52627;48.838;2.402;2023-04-15T02:20:55;14.00;;;8.60;;
65853;SDS011;52627;48.838;2.402;2023-04-15T02:23:23;12.20;;;8.70;;
65853;SDS011;52627;48.838;2.402;2023-04-15T02:25:50;11.90;;;9.10;;
65853;SDS011;52627;48.838;2.402;2023-04-15T02:28:20;11.80;;;8.70;;
65853;SDS011;52627;48.838;2.402;2023-04-15T02:30:48;12.10;;;7.60;;
65853;SDS011;52627;48.838;2.402;2023-04-15T02:33:20;12.20;;;8.30;;
65853;SDS011;52627;48.838;2.402;2023-04-15T02:35:47;11.30;;;7.80;;
65853;SDS011;52627;48.838;2.402;2023-04-15T02:38:14;11.50;;;8.00;;
65853;SDS011;52627;48.838;2.402;2023-04-15T02:40:43;10.50;;;7.60;;
65853;SDS011;52627;48.838;2.402;2023-04-15T02:43:09;11.70;;;7.50;;
65853;SDS011;52627;48.838;2.402;2023-04-15T02:45:37;13.80;;;8.40;;
65853;SDS011;52627;48.838;2.402;2023-04-15T02:48:04;11.80;;;7.40;;
65853;SDS011;52627;48.838;2.402;2023-04-15T02:50:31;12.50;;;8.30;;
65853;SDS011;52627;48.838;2.402;2023-04-15T02:52:58;11.30;;;7.50;;
65853;SDS011;52627;48.838;2.402;2023-04-15T02:55:27;12.20;;;7.90;;
65853;SDS011;52627;48.838;2.402;2023-04-15T02:57:54;13.30;;;9.00;;
65853;SDS011;52627;48.838;2.402;2023-04-15T03:00:21;12.30;;;8.40;;
65853;SDS011;52627;48.838;2.402;2023-04-15T03:02:47;13.00;;;9.20;;
65853;SDS011;52627;48.838;2.402;2023-04-15T03:05:17;13.10;;;8.60;;
65853;SDS011;52627;48.838;2.402;2023-04-15T03:07:44;12.70;;;8.60;;
65853;SDS011;52627;48.838;2.402;2023-04-15T03:10:11;13.20;;;8.60;;
65853;SDS011;52627;48.838;2.402;2023-04-15T03:12:38;12.80;;;8.70;;
65853;SDS011;52627;48.838;2.402;2023-04-15T03:15:05;14.50;;;9.50;;
65853;SDS011;52627;48.838;2.402;2023-04-15T03:17:33;12.70;;;8.70;;
65853;SDS011;52627;48.838;2.402;2023-04-15T03:20:01;11.70;;;8.40;;
65853;SDS011;52627;48.838;2.402;2023-04-15T03:22:31;13.80;;;8.90;;
65853;SDS011;52627;48.838;2.402;2023-04-15T03:24:58;15.40;;;10.00;;
65853;SDS011;52627;48.838;2.402;2023-04-15T03:27:25;18.60;;;11.10;;
65853;SDS011;52627;48.838;2.402;2023-04-15T03:29:51;20.10;;;11.90;;
65853;SDS011;52627;48.838;2.402;2023-04-15T03:32:18;18.50;;;11.50;;
65853;SDS011;52627;48.838;2.402;2023-04-15T03:34:45;17.10;;;11.30;;
65853;SDS011;52627;48.838;2.402;2023-04-15T03:37:12;18.30;;;11.90;;
65853;SDS011;52627;48.838;2.402;2023-04-15T03:39:39;20.40;;;12.40;;
65853;SDS011;52627;48.838;2.402;2023-04-15T03:42:06;19.00;;;12.80;;
65853;SDS011;52627;48.838;2.402;2023-04-15T03:44:32;21.00;;;13.30;;
65853;SDS011;52627;48.838;2.402;2023-04-15T03:46:59;20.20;;;11.00;;
65853;SDS011;52627;48.838;2.402;2023-04-15T03:49:26;15.30;;;9.80;;
65853;SDS011;52627;48.838;2.402;2023-04-15T03:51:52;16.90;;;10.30;;
65853;SDS011;52627;48.838;2.402;2023-04-15T03:54:19;14.10;;;9.60;;
65853;SDS011;52627;48.838;2.402;2023-04-15T03:56:46;16.10;;;9.60;;
65853;SDS011;52627;48.838;2.402;2023-04-15T03:59:12;12.20;;;8.50;;
65853;SDS011;52627;48.838;2.402;2023-04-15T04:01:39;12.70;;;8.70;;
65853;SDS011;52627;48.838;2.402;2023-04-15T04:04:06;13.00;;;8.70;;
65853;SDS011;52627;48.838;2.402;2023-04-15T04:06:33;11.90;;;7.70;;
65853;SDS011;52627;48.838;2.402;2023-04-15T04:09:00;12.20;;;7.60;;
65853;SDS011;52627;48.838;2.402;2023-04-15T04:11:27;9.20;;;6.50;;
65853;SDS011;52627;48.838;2.402;2023-04-15T04:13:54;11.00;;;7.00;;
65853;SDS011;52627;48.838;2.402;2023-04-15T04:16:20;9.10;;;6.90;;
65853;SDS011;52627;48.838;2.402;2023-04-15T04:18:47;9.20;;;6.20;;
65853;SDS011;52627;48.838;2.402;2023-04-15T04:21:15;9.90;;;6.30;;
65853;SDS011;52627;48.838;2.402;2023-04-15T04:23:42;8.10;;;5.70;;
65853;SDS011;52627;48.838;2.402;2023-04-15T04:26:09;8.90;;;5.80;;
65853;SDS011;52627;48.838;2.402;2023-04-15T04:28:35;9.80;;;5.50;;
65853;SDS011;52627;48.838;2.402;2023-04-15T04:31:02;12.70;;;5.60;;
65853;SDS011;52627;48.838;2.402;2023-04-15T04:33:29;8.60;;;5.80;;
65853;SDS011;52627;48.838;2.402;2023-04-15T04:35:56;8.40;;;4.60;;
65853;SDS011;52627;48.838;2.402;2023-04-15T04:38:22;8.40;;;4.50;;
65853;SDS011;52627;48.838;2.402;2023-04-15T04:40:49;8.00;;;5.10;;
65853;SDS011;52627;48.838;2.402;2023-04-15T04:43:16;8.20;;;4.10;;
65853;SDS011;52627;48.838;2.402;2023-04-15T04:45:42;6.40;;;3.60;;
65853;SDS011;52627;48.838;2.402;2023-04-15T04:48:09;5.00;;;3.80;;
65853;SDS011;52627;48.838;2.402;2023-04-15T04:50:36;7.60;;;3.50;;
65853;SDS011;52627;48.838;2.402;2023-04-15T04:53:03;7.50;;;4.00;;
65853;SDS011;52627;48.838;2.402;2023-04-15T04:55:30;8.00;;;3.70;;
65853;SDS011;52627;48.838;2.402;2023-04-15T04:57:57;5.60;;;3.50;;
65853;SDS011;52627;48.838;2.402;2023-04-15T05:00:24;6.20;;;3.40;;
65853;SDS011;52627;48.838;2.402;2023-04-15T05:02:50;6.40;;;3.00;;
65853;SDS011;52627;48.838;2.402;2023-04-15T05:05:17;4.50;;;2.80;;
65853;SDS011;52627;48.838;2.402;2023-04-15T05:07:44;4.50;;;2.90;;
65853;SDS011;52627;48.838;2.402;2023-04-15T05:10:11;4.50;;;2.50;;
65853;SDS011;52627;48.838;2.402;2023-04-15T05:12:38;4.80;;;2.30;;
65853;SDS011;52627;48.838;2.402;2023-04-15T05:15:06;4.50;;;2.40;;
65853;SDS011;52627;48.838;2.402;2023-04-15T05:17:33;3.50;;;2.10;;
65853;SDS011;52627;48.838;2.402;2023-04-15T05:20:01;3.90;;;1.80;;
65853;SDS011;52627;48.838;2.402;2023-04-15T05:22:29;4.20;;;2.40;;
65853;SDS011;52627;48.838;2.402;2023-04-15T05:24:56;4.20;;;2.20;;
65853;SDS011;52627;48.838;2.402;2023-04-15T05:27:22;3.50;;;2.00;;
65853;SDS011;52627;48.838;2.402;2023-04-15T05:29:50;5.70;;;2.20;;
65853;SDS011;52627;48.838;2.402;2023-04-15T05:32:17;5.30;;;2.10;;
65853;SDS011;52627;48.838;2.402;2023-04-15T05:34:44;3.60;;;1.80;;
65853;SDS011;52627;48.838;2.402;2023-04-15T05:37:11;4.80;;;2.30;;
65853;SDS011;52627;48.838;2.402;2023-04-15T05:39:38;6.20;;;2.10;;
65853;SDS011;52627;48.838;2.402;2023-04-15T05:42:04;3.90;;;2.30;;
65853;SDS011;52627;48.838;2.402;2023-04-15T05:44:31;3.70;;;2.20;;
65853;SDS011;52627;48.838;2.402;2023-04-15T05:46:58;4.10;;;2.30;;
65853;SDS011;52627;48.838;2.402;2023-04-15T05:49:25;4.00;;;2.30;;
65853;SDS011;52627;48.838;2.402;2023-04-15T05:51:52;6.10;;;3.60;;
65853;SDS011;52627;48.838;2.402;2023-04-15T05:54:19;4.80;;;2.90;;
65853;SDS011;52627;48.838;2.402;2023-04-15T05:56:48;4.40;;;2.80;;
65853;SDS011;52627;48.838;2.402;2023-04-15T05:59:15;5.20;;;3.10;;
65853;SDS011;52627;48.838;2.402;2023-04-15T06:01:42;6.80;;;2.90;;
65853;SDS011;52627;48.838;2.402;2023-04-15T06:04:09;6.70;;;3.60;;
65853;SDS011;52627;48.838;2.402;2023-04-15T06:06:37;6.40;;;4.50;;
65853;SDS011;52627;48.838;2.402;2023-04-15T06:09:04;6.50;;;3.90;;
65853;SDS011;52627;48.838;2.402;2023-04-15T06:11:30;6.20;;;4.00;;
65853;SDS011;52627;48.838;2.402;2023-04-15T06:13:57;7.90;;;4.20;;
65853;SDS011;52627;48.838;2.402;2023-04-15T06:16:24;5.90;;;3.60;;
65853;SDS011;52627;48.838;2.402;2023-04-15T06:18:51;5.90;;;3.90;;
65853;SDS011;52627;48.838;2.402;2023-04-15T06:21:18;6.30;;;4.30;;
65853;SDS011;52627;48.838;2.402;2023-04-15T06:23:44;6.50;;;4.10;;
65853;SDS011;52627;48.838;2.402;2023-04-15T06:26:11;5.20;;;3.60;;
65853;SDS011;52627;48.838;2.402;2023-04-15T06:28:38;6.00;;;3.40;;
65853;SDS011;52627;48.838;2.402;2023-04-15T06:31:05;6.90;;;4.20;;
65853;SDS011;52627;48.838;2.402;2023-04-15T06:33:31;5.80;;;3.80;;
65853;SDS011;52627;48.838;2.402;2023-04-15T06:35:58;5.40;;;3.60;;
65853;SDS011;52627;48.838;2.402;2023-04-15T06:38:25;7.30;;;3.80;;
65853;SDS011;52627;48.838;2.402;2023-04-15T06:40:52;6.70;;;3.80;;
65853;SDS011;52627;48.838;2.402;2023-04-15T06:43:18;6.30;;;4.10;;
65853;SDS011;52627;48.838;2.402;2023-04-15T06:45:45;8.60;;;4.20;;
65853;SDS011;52627;48.838;2.402;2023-04-15T06:48:12;6.30;;;4.00;;
65853;SDS011;52627;48.838;2.402;2023-04-15T06:50:39;5.90;;;3.70;;
65853;SDS011;52627;48.838;2.402;2023-04-15T06:53:06;7.00;;;3.80;;
65853;SDS011;52627;48.838;2.402;2023-04-15T06:55:33;6.00;;;3.50;;
65853;SDS011;52627;48.838;2.402;2023-04-15T06:58:00;5.10;;;3.60;;
65853;SDS011;52627;48.838;2.402;2023-04-15T07:00:27;5.10;;;3.20;;
65853;SDS011;52627;48.838;2.402;2023-04-15T07:02:54;6.30;;;3.60;;
65853;SDS011;52627;48.838;2.402;2023-04-15T07:05:22;6.40;;;3.60;;
65853;SDS011;52627;48.838;2.402;2023-04-15T07:07:48;5.60;;;2.80;;
65853;SDS011;52627;48.838;2.402;2023-04-15T07:10:15;5.50;;;3.20;;
65853;SDS011;52627;48.838;2.402;2023-04-15T07:12:42;4.50;;;2.80;;
65853;SDS011;52627;48.838;2.402;2023-04-15T07:15:09;4.00;;;2.40;;
65853;SDS011;52627;48.838;2.402;2023-04-15T07:17:36;4.80;;;2.90;;
65853;SDS011;52627;48.838;2.402;2023-04-15T07:20:04;12.10;;;6.70;;
65853;SDS011;52627;48.838;2.402;2023-04-15T07:22:31;5.40;;;2.90;;
65853;SDS011;52627;48.838;2.402;2023-04-15T07:24:58;4.80;;;2.50;;
65853;SDS011;52627;48.838;2.402;2023-04-15T07:27:25;4.40;;;2.40;;
65853;SDS011;52627;48.838;2.402;2023-04-15T07:29:52;4.00;;;2.20;;
65853;SDS011;52627;48.838;2.402;2023-04-15T07:32:19;4.10;;;2.20;;
65853;SDS011;52627;48.838;2.402;2023-04-15T07:34:46;3.60;;;1.90;;
65853;SDS011;52627;48.838;2.402;2023-04-15T07:37:14;3.10;;;1.80;;
65853;SDS011;52627;48.838;2.402;2023-04-15T07:39:41;3.20;;;1.80;;
65853;SDS011;52627;48.838;2.402;2023-04-15T07:42:08;2.60;;;1.50;;
65853;SDS011;52627;48.838;2.402;2023-04-15T07:44:35;3.50;;;1.90;;
65853;SDS011;52627;48.838;2.402;2023-04-15T07:47:02;3.60;;;2.10;;
65853;SDS011;52627;48.838;2.402;2023-04-15T07:49:29;3.30;;;2.00;;
65853;SDS011;52627;48.838;2.402;2023-04-15T07:51:56;3.30;;;1.70;;
65853;SDS011;52627;48.838;2.402;2023-04-15T07:54:25;3.50;;;1.70;;
65853;SDS011;52627;48.838;2.402;2023-04-15T07:56:53;2.90;;;1.80;;
65853;SDS011;52627;48.838;2.402;2023-04-15T07:59:19;5.60;;;2.60;;
65853;SDS011;52627;48.838;2.402;2023-04-15T08:01:47;5.10;;;2.00;;
65853;SDS011;52627;48.838;2.402;2023-04-15T08:04:14;4.00;;;1.70;;
65853;SDS011;52627;48.838;2.402;2023-04-15T08:06:42;3.20;;;1.70;;
65853;SDS011;52627;48.838;2.402;2023-04-15T08:09:08;5.50;;;2.30;;
65853;SDS011;52627;48.838;2.402;2023-04-15T08:11:35;3.40;;;1.70;;
65853;SDS011;52627;48.838;2.402;2023-04-15T08:14:02;4.50;;;2.00;;
65853;SDS011;52627;48.838;2.402;2023-04-15T08:16:29;3.70;;;1.70;;
65853;SDS011;52627;48.838;2.402;2023-04-15T08:18:56;3.20;;;1.60;;
65853;SDS011;52627;48.838;2.402;2023-04-15T08:21:24;3.30;;;2.10;;
65853;SDS011;52627;48.838;2.402;2023-04-15T08:23:52;3.40;;;1.90;;
65853;SDS011;52627;48.838;2.402;2023-04-15T08:26:20;3.40;;;2.00;;
65853;SDS011;52627;48.838;2.402;2023-04-15T08:28:48;4.00;;;2.40;;
65853;SDS011;52627;48.838;2.402;2023-04-15T08:31:16;4.10;;;2.40;;
65853;SDS011;52627;48.838;2.402;2023-04-15T08:33:44;3.80;;;2.20;;
65853;SDS011;52627;48.838;2.402;2023-04-15T08:36:11;3.70;;;2.50;;
65853;SDS011;52627;48.838;2.402;2023-04-15T08:38:39;3.10;;;1.90;;
65853;SDS011;52627;48.838;2.402;2023-04-15T08:41:11;5.20;;;2.10;;
65853;SDS011;52627;48.838;2.402;2023-04-15T08:43:57;3.50;;;1.90;;
65853;SDS011;52627;48.838;2.402;2023-04-15T08:46:29;3.50;;;1.90;;
65853;SDS011;52627;48.838;2.402;2023-04-15T08:48:57;5.40;;;2.10;;
65853;SDS011;52627;48.838;2.402;2023-04-15T08:51:24;3.80;;;1.60;;
65853;SDS011;52627;48.838;2.402;2023-04-15T08:53:53;3.00;;;1.60;;
65853;SDS011;52627;48.838;2.402;2023-04-15T08:56:23;4.90;;;1.80;;
65853;SDS011;52627;48.838;2.402;2023-04-15T08:58:52;3.60;;;2.00;;
65853;SDS011;52627;48.838;2.402;2023-04-15T09:01:19;3.40;;;1.80;;
65853;SDS011;52627;48.838;2.402;2023-04-15T09:03:48;4.20;;;2.40;;
65853;SDS011;52627;48.838;2.402;2023-04-15T09:06:19;4.40;;;2.30;;
65853;SDS011;52627;48.838;2.402;2023-04-15T09:08:47;3.00;;;1.70;;
65853;SDS011;52627;48.838;2.402;2023-04-15T09:11:15;3.40;;;1.40;;
65853;SDS011;52627;48.838;2.402;2023-04-15T09:16:13;4.10;;;1.60;;
65853;SDS011;52627;48.838;2.402;2023-04-15T09:18:39;3.50;;;1.80;;
65853;SDS011;52627;48.838;2.402;2023-04-15T09:21:14;3.00;;;1.90;;
65853;SDS011;52627;48.838;2.402;2023-04-15T09:23:57;3.20;;;1.90;;
65853;SDS011;52627;48.838;2.402;2023-04-15T09:26:34;6.30;;;2.40;;
65853;SDS011;52627;48.838;2.402;2023-04-15T09:29:07;7.10;;;2.10;;
65853;SDS011;52627;48.838;2.402;2023-04-15T09:31:36;3.80;;;2.00;;
65853;SDS011;52627;48.838;2.402;2023-04-15T09:34:04;3.90;;;2.00;;
65853;SDS011;52627;48.838;2.402;2023-04-15T09:36:57;6.20;;;2.00;;
65853;SDS011;52627;48.838;2.402;2023-04-15T09:39:24;6.50;;;2.40;;
65853;SDS011;52627;48.838;2.402;2023-04-15T09:42:06;4.20;;;2.10;;
65853;SDS011;52627;48.838;2.402;2023-04-15T09:44:33;4.90;;;2.20;;
65853;SDS011;52627;48.838;2.402;2023-04-15T09:47:00;4.80;;;2.20;;
65853;SDS011;52627;48.838;2.402;2023-04-15T09:49:27;3.60;;;2.20;;
65853;SDS011;52627;48.838;2.402;2023-04-15T09:52:01;3.40;;;2.00;;
65853;SDS011;52627;48.838;2.402;2023-04-15T09:54:37;4.40;;;2.10;;
65853;SDS011;52627;48.838;2.402;2023-04-15T09:57:08;5.40;;;1.90;;
65853;SDS011;52627;48.838;2.402;2023-04-15T09:59:35;4.60;;;2.30;;
65853;SDS011;52627;48.838;2.402;2023-04-15T10:02:05;4.80;;;2.00;;
65853;SDS011;52627;48.838;2.402;2023-04-15T10:04:39;3.50;;;2.10;;
65853;SDS011;52627;48.838;2.402;2023-04-15T10:07:11;4.20;;;2.20;;
65853;SDS011;52627;48.838;2.402;2023-04-15T10:12:04;4.50;;;2.50;;
65853;SDS011;52627;48.838;2.402;2023-04-15T10:14:33;4.00;;;2.80;;
65853;SDS011;52627;48.838;2.402;2023-04-15T10:17:04;4.80;;;2.60;;
65853;SDS011;52627;48.838;2.402;2023-04-15T10:19:32;4.70;;;2.50;;
65853;SDS011;52627;48.838;2.402;2023-04-15T10:24:33;4.20;;;2.50;;
65853;SDS011;52627;48.838;2.402;2023-04-15T10:27:02;4.10;;;2.30;;
65853;SDS011;52627;48.838;2.402;2023-04-15T10:29:30;4.10;;;2.30;;
65853;SDS011;52627;48.838;2.402;2023-04-15T10:31:58;5.60;;;2.40;;
65853;SDS011;52627;48.838;2.402;2023-04-15T10:34:26;5.40;;;2.60;;
65853;SDS011;52627;48.838;2.402;2023-04-15T10:37:01;4.50;;;2.40;;
65853;SDS011;52627;48.838;2.402;2023-04-15T10:44:35;4.10;;;2.30;;
65853;SDS011;52627;48.838;2.402;2023-04-15T10:47:14;4.40;;;2.10;;
65853;SDS011;52627;48.838;2.402;2023-04-15T10:49:50;4.10;;;1.90;;
65853;SDS011;52627;48.838;2.402;2023-04-15T10:52:26;4.00;;;2.10;;
65853;SDS011;52627;48.838;2.402;2023-04-15T10:55:13;4.50;;;2.10;;
65853;SDS011;52627;48.838;2.402;2023-04-15T10:57:43;4.00;;;2.30;;
65853;SDS011;52627;48.838;2.402;2023-04-15T11:00:15;4.00;;;2.00;;
65853;SDS011;52627;48.838;2.402;2023-04-15T11:05:15;4.00;;;2.30;;
65853;SDS011;52627;48.838;2.402;2023-04-15T11:07:54;4.80;;;1.90;;
65853;SDS011;52627;48.838;2.402;2023-04-15T11:12:55;4.80;;;2.20;;
65853;SDS011;52627;48.838;2.402;2023-04-15T11:15:31;4.60;;;2.40;;
65853;SDS011;52627;48.838;2.402;2023-04-15T11:20:41;4.10;;;2.00;;
65853;SDS011;52627;48.838;2.402;2023-04-15T11:23:10;4.40;;;2.00;;
65853;SDS011;52627;48.838;2.402;2023-04-15T11:25:42;4.10;;;2.40;;
65853;SDS011;52627;48.838;2.402;2023-04-15T11:28:11;7.00;;;2.30;;
65853;SDS011;52627;48.838;2.402;2023-04-15T11:30:39;4.70;;;2.00;;
65853;SDS011;52627;48.838;2.402;2023-04-15T11:33:09;5.00;;;2.40;;
65853;SDS011;52627;48.838;2.402;2023-04-15T11:35:40;4.20;;;2.20;;
65853;SDS011;52627;48.838;2.402;2023-04-15T11:38:11;3.80;;;2.10;;
65853;SDS011;52627;48.838;2.402;2023-04-15T11:40:39;4.20;;;2.10;;
65853;SDS011;52627;48.838;2.402;2023-04-15T11:43:12;4.50;;;2.30;;
65853;SDS011;52627;48.838;2.402;2023-04-15T11:45:58;4.80;;;2.60;;
65853;SDS011;52627;48.838;2.402;2023-04-15T11:48:32;6.90;;;3.70;;
65853;SDS011;52627;48.838;2.402;2023-04-15T11:51:05;4.20;;;2.60;;
65853;SDS011;52627;48.838;2.402;2023-04-15T11:56:17;4.60;;;2.20;;
65853;SDS011;52627;48.838;2.402;2023-04-15T11:58:47;4.70;;;2.10;;
65853;SDS011;52627;48.838;2.402;2023-04-15T12:01:16;3.80;;;2.30;;
65853;SDS011;52627;48.838;2.402;2023-04-15T12:03:47;3.90;;;2.10;;
65853;SDS011;52627;48.838;2.402;2023-04-15T12:06:19;3.90;;;2.30;;
65853;SDS011;52627;48.838;2.402;2023-04-15T12:09:03;4.50;;;2.40;;
65853;SDS011;52627;48.838;2.402;2023-04-15T12:11:45;4.10;;;2.10;;
65853;SDS011;52627;48.838;2.402;2023-04-15T12:16:54;4.40;;;2.00;;
65853;SDS011;52627;48.838;2.402;2023-04-15T12:19:29;4.40;;;2.20;;
65853;SDS011;52627;48.838;2.402;2023-04-15T12:22:03;3.70;;;2.10;;
65853;SDS011;52627;48.838;2.402;2023-04-15T12:24:33;3.90;;;2.30;;
65853;SDS011;52627;48.838;2.402;2023-04-15T12:27:03;5.40;;;2.70;;
65853;SDS011;52627;48.838;2.402;2023-04-15T12:29:35;3.50;;;2.10;;
65853;SDS011;52627;48.838;2.402;2023-04-15T12:32:06;4.30;;;1.90;;
65853;SDS011;52627;48.838;2.402;2023-04-15T12:34:37;3.70;;;2.00;;
65853;SDS011;52627;48.838;2.402;2023-04-15T12:37:07;5.20;;;2.30;;
65853;SDS011;52627;48.838;2.402;2023-04-15T12:39:40;4.10;;;1.90;;
65853;SDS011;52627;48.838;2.402;2023-04-15T12:42:08;4.70;;;2.20;;
65853;SDS011;52627;48.838;2.402;2023-04-15T12:44:36;3.70;;;1.90;;
65853;SDS011;52627;48.838;2.402;2023-04-15T12:47:04;3.70;;;2.00;;
65853;SDS011;52627;48.838;2.402;2023-04-15T12:49:32;3.60;;;1.80;;
65853;SDS011;52627;48.838;2.402;2023-04-15T12:52:00;3.50;;;1.90;;
65853;SDS011;52627;48.838;2.402;2023-04-15T12:54:29;5.70;;;2.00;;
65853;SDS011;52627;48.838;2.402;2023-04-15T12:56:57;4.50;;;2.00;;
65853;SDS011;52627;48.838;2.402;2023-04-15T12:59:24;5.30;;;2.20;;
65853;SDS011;52627;48.838;2.402;2023-04-15T13:01:52;4.80;;;2.10;;
65853;SDS011;52627;48.838;2.402;2023-04-15T13:04:19;4.10;;;2.10;;
65853;SDS011;52627;48.838;2.402;2023-04-15T13:06:47;3.90;;;2.30;;
65853;SDS011;52627;48.838;2.402;2023-04-15T13:09:14;4.40;;;2.20;;
65853;SDS011;52627;48.838;2.402;2023-04-15T13:11:41;5.30;;;2.10;;
65853;SDS011;52627;48.838;2.402;2023-04-15T13:14:08;4.70;;;2.60;;
65853;SDS011;52627;48.838;2.402;2023-04-15T13:16:38;5.90;;;2.00;;
65853;SDS011;52627;48.838;2.402;2023-04-15T13:19:05;14.00;;;2.70;;
65853;SDS011;52627;48.838;2.402;2023-04-15T13:21:32;13.20;;;2.50;;
65853;SDS011;52627;48.838;2.402;2023-04-15T13:24:01;9.00;;;2.40;;
65853;SDS011;52627;48.838;2.402;2023-04-15T13:26:28;5.50;;;1.80;;
65853;SDS011;52627;48.838;2.402;2023-04-15T13:28:55;3.60;;;1.80;;
65853;SDS011;52627;48.838;2.402;2023-04-15T13:31:22;3.40;;;1.80;;
65853;SDS011;52627;48.838;2.402;2023-04-15T13:33:48;9.30;;;2.50;;
65853;SDS011;52627;48.838;2.402;2023-04-15T13:36:15;4.80;;;1.80;;
65853;SDS011;52627;48.838;2.402;2023-04-15T13:38:42;4.10;;;1.70;;
65853;SDS011;52627;48.838;2.402;2023-04-15T13:41:09;3.40;;;1.40;;
65853;SDS011;52627;48.838;2.402;2023-04-15T13:43:36;2.80;;;1.50;;
65853;SDS011;52627;48.838;2.402;2023-04-15T13:46:06;4.30;;;1.40;;
65853;SDS011;52627;48.838;2.402;2023-04-15T13:48:32;3.40;;;1.50;;
65853;SDS011;52627;48.838;2.402;2023-04-15T13:50:59;2.60;;;1.30;;
65853;SDS011;52627;48.838;2.402;2023-04-15T13:53:26;3.00;;;1.40;;
65853;SDS011;52627;48.838;2.402;2023-04-15T13:56:06;2.90;;;1.50;;
65853;SDS011;52627;48.838;2.402;2023-04-15T13:58:33;4.40;;;1.50;;
65853;SDS011;52627;48.838;2.402;2023-04-15T14:01:00;3.50;;;1.50;;
65853;SDS011;52627;48.838;2.402;2023-04-15T14:03:31;3.60;;;1.40;;
65853;SDS011;52627;48.838;2.402;2023-04-15T14:05:58;3.00;;;1.40;;
65853;SDS011;52627;48.838;2.402;2023-04-15T14:08:25;4.20;;;1.60;;
65853;SDS011;52627;48.838;2.402;2023-04-15T14:10:52;3.10;;;1.40;;
65853;SDS011;52627;48.838;2.402;2023-04-15T14:13:19;3.30;;;1.30;;
65853;SDS011;52627;48.838;2.402;2023-04-15T14:15:46;3.70;;;1.70;;
65853;SDS011;52627;48.838;2.402;2023-04-15T14:18:13;3.50;;;1.50;;
65853;SDS011;52627;48.838;2.402;2023-04-15T14:20:40;4.80;;;1.60;;
65853;SDS011;52627;48.838;2.402;2023-04-15T14:23:06;2.90;;;1.60;;
65853;SDS011;52627;48.838;2.402;2023-04-15T14:25:33;4.30;;;1.70;;
65853;SDS011;52627;48.838;2.402;2023-04-15T14:28:01;3.80;;;1.80;;
65853;SDS011;52627;48.838;2.402;2023-04-15T14:30:28;3.60;;;1.80;;
65853;SDS011;52627;48.838;2.402;2023-04-15T14:32:55;4.40;;;1.70;;
65853;SDS011;52627;48.838;2.402;2023-04-15T14:35:22;4.00;;;1.60;;
65853;SDS011;52627;48.838;2.402;2023-04-15T14:37:52;4.70;;;1.70;;
65853;SDS011;52627;48.838;2.402;2023-04-15T14:40:20;3.50;;;1.90;;
65853;SDS011;52627;48.838;2.402;2023-04-15T14:42:47;4.10;;;1.90;;
65853;SDS011;52627;48.838;2.402;2023-04-15T14:45:13;3.70;;;1.70;;
65853;SDS011;52627;48.838;2.402;2023-04-15T14:47:40;3.00;;;1.50;;
65853;SDS011;52627;48.838;2.402;2023-04-15T14:50:08;4.10;;;1.90;;
65853;SDS011;52627;48.838;2.402;2023-04-15T14:52:35;4.10;;;1.80;;
65853;SDS011;52627;48.838;2.402;2023-04-15T14:55:06;4.80;;;2.30;;
65853;SDS011;52627;48.838;2.402;2023-04-15T14:57:37;4.10;;;1.90;;
65853;SDS011;52627;48.838;2.402;2023-04-15T15:00:07;3.90;;;1.70;;
65853;SDS011;52627;48.838;2.402;2023-04-15T15:02:37;4.20;;;1.70;;
65853;SDS011;52627;48.838;2.402;2023-04-15T15:05:08;3.70;;;1.60;;
65853;SDS011;52627;48.838;2.402;2023-04-15T15:07:36;3.70;;;1.60;;
65853;SDS011;52627;48.838;2.402;2023-04-15T15:10:05;4.20;;;1.90;;
65853;SDS011;52627;48.838;2.402;2023-04-15T15:12:32;4.70;;;1.60;;
65853;SDS011;52627;48.838;2.402;2023-04-15T15:14:59;3.40;;;1.60;;